createdAt,value
2022-09-21T00:00:20.090Z,4.37
2022-09-21T00:02:46.718Z,6.93
2022-09-21T00:05:13.414Z,3.80
2022-09-21T00:07:39.933Z,5.73
2022-09-21T00:10:06.682Z,3.57
2022-09-21T00:12:33.578Z,4.50
2022-09-21T00:15:00.079Z,5.33
2022-09-21T00:17:26.497Z,5.30
2022-09-21T00:19:53.116Z,4.47
2022-09-21T00:22:19.876Z,3.83
2022-09-21T00:24:46.671Z,6.47
2022-09-21T00:27:13.234Z,3.93
2022-09-21T00:29:39.776Z,4.80
2022-09-21T00:32:06.912Z,6.67
2022-09-21T00:34:34.226Z,5.07
2022-09-21T00:37:00.758Z,5.53
2022-09-21T00:39:27.250Z,6.23
2022-09-21T00:41:53.935Z,3.83
2022-09-21T00:44:26.084Z,3.50
2022-09-21T00:46:54.257Z,3.93
2022-09-21T00:49:21.297Z,5.27
2022-09-21T00:51:49.229Z,4.63
2022-09-21T00:54:20.055Z,4.80
2022-09-21T00:56:46.754Z,5.20
2022-09-21T00:59:14.596Z,4.13
2022-09-21T01:01:43.005Z,5.20
2022-09-21T01:04:10.692Z,4.23
2022-09-21T01:06:37.994Z,4.57
2022-09-21T01:09:04.826Z,4.23
2022-09-21T01:11:32.083Z,6.17
2022-09-21T01:14:07.762Z,4.17
2022-09-21T01:16:52.879Z,3.17
2022-09-21T01:19:39.125Z,5.73
2022-09-21T01:22:15.029Z,4.93
2022-09-21T01:24:42.012Z,3.53
2022-09-21T01:27:27.635Z,3.00
2022-09-21T01:29:59.840Z,6.30
2022-09-21T01:32:32.519Z,6.03
2022-09-21T01:35:09.106Z,5.53
2022-09-21T01:37:35.730Z,6.37
2022-09-21T01:40:04.843Z,3.90
2022-09-21T01:42:32.778Z,3.07
2022-09-21T01:45:00.966Z,3.73
2022-09-21T01:47:28.116Z,4.00
2022-09-21T01:49:59.298Z,5.33
2022-09-21T01:52:36.445Z,4.90
2022-09-21T01:55:18.903Z,4.87
2022-09-21T01:57:55.283Z,6.07
2022-09-21T02:00:22.234Z,4.17
2022-09-21T02:02:54.702Z,3.97
2022-09-21T02:05:23.541Z,3.50
2022-09-21T02:07:51.367Z,6.33
2022-09-21T02:10:32.990Z,3.77
2022-09-21T02:13:01.598Z,4.67
2022-09-21T02:15:36.172Z,3.97
2022-09-21T02:18:06.579Z,4.20
2022-09-21T02:20:39.375Z,6.27
2022-09-21T02:23:17.556Z,6.10
2022-09-21T02:26:05.213Z,4.77
2022-09-21T02:28:43.420Z,7.70
2022-09-21T02:31:17.789Z,8.03
2022-09-21T02:33:59.287Z,4.03
2022-09-21T02:36:34.155Z,5.17
2022-09-21T02:39:10.664Z,5.53
2022-09-21T02:42:02.704Z,4.10
2022-09-21T02:44:35.502Z,5.80
2022-09-21T02:47:21.236Z,7.23
2022-09-21T02:49:53.389Z,6.33
2022-09-21T02:52:20.661Z,7.37
2022-09-21T02:54:50.072Z,10.10
2022-09-21T02:57:18.197Z,7.53
2022-09-21T02:59:44.868Z,5.47
2022-09-21T03:02:13.170Z,7.57
2022-09-21T03:04:41.295Z,8.57
2022-09-21T03:07:08.568Z,6.10
2022-09-21T03:09:36.131Z,6.57
2022-09-21T03:12:03.546Z,8.93
2022-09-21T03:14:31.476Z,7.47
2022-09-21T03:16:59.446Z,5.23
2022-09-21T03:19:26.233Z,5.47
2022-09-21T03:21:53.959Z,5.37
2022-09-21T03:24:40.640Z,8.50
2022-09-21T03:27:08.869Z,6.70
2022-09-21T03:29:35.392Z,7.53
2022-09-21T03:32:02.054Z,6.83
2022-09-21T03:34:28.734Z,8.13
2022-09-21T03:36:55.534Z,6.77
2022-09-21T03:39:22.162Z,5.77
2022-09-21T03:41:48.590Z,7.37
2022-09-21T03:44:17.714Z,6.60
2022-09-21T03:46:44.535Z,7.77
2022-09-21T03:49:10.976Z,4.57
2022-09-21T03:51:38.198Z,5.63
2022-09-21T03:54:04.875Z,7.27
2022-09-21T03:56:31.541Z,8.87
2022-09-21T03:58:58.264Z,7.20
2022-09-21T04:01:26.186Z,7.10
2022-09-21T04:03:52.924Z,5.27
2022-09-21T04:06:19.529Z,5.17
2022-09-21T04:08:46.028Z,4.63
2022-09-21T04:11:15.308Z,7.60
2022-09-21T04:13:45.468Z,4.70
2022-09-21T04:16:12.896Z,7.20
2022-09-21T04:18:39.440Z,5.17
2022-09-21T04:21:07.146Z,6.03
2022-09-21T04:23:33.635Z,5.87
2022-09-21T04:26:01.100Z,7.30
2022-09-21T04:28:30.119Z,5.53
2022-09-21T04:30:56.677Z,5.30
2022-09-21T04:33:23.955Z,6.90
2022-09-21T04:35:56.885Z,5.97
2022-09-21T04:38:23.396Z,7.03
2022-09-21T04:40:57.076Z,6.77
2022-09-21T04:43:23.660Z,7.70
2022-09-21T04:45:50.160Z,6.80
2022-09-21T04:48:18.165Z,8.43
2022-09-21T04:50:48.164Z,6.37
2022-09-21T04:53:14.827Z,9.07
2022-09-21T04:55:41.417Z,9.03
2022-09-21T04:58:09.331Z,4.87
2022-09-21T05:01:12.902Z,6.20
2022-09-21T05:03:40.252Z,8.47
2022-09-21T05:06:06.864Z,6.73
2022-09-21T05:08:56.395Z,8.87
2022-09-21T05:11:23.367Z,8.03
2022-09-21T05:13:49.954Z,6.40
2022-09-21T05:16:18.141Z,9.00
2022-09-21T05:18:45.347Z,6.77
2022-09-21T05:21:13.216Z,9.23
2022-09-21T05:23:39.802Z,8.17
2022-09-21T05:26:06.820Z,6.43
2022-09-21T05:28:37.723Z,5.77
2022-09-21T05:31:18.058Z,5.97
2022-09-21T05:33:50.660Z,8.80
2022-09-21T05:36:36.360Z,6.33
2022-09-21T05:39:03.179Z,6.77
2022-09-21T05:41:30.030Z,6.93
2022-09-21T05:43:57.305Z,6.67
2022-09-21T05:46:26.855Z,9.93
2022-09-21T05:49:16.180Z,13.80
2022-09-21T05:51:42.725Z,7.43
2022-09-21T05:54:28.281Z,7.70
2022-09-21T05:56:57.845Z,8.30
2022-09-21T05:59:24.316Z,7.90
2022-09-21T06:02:02.204Z,7.87
2022-09-21T06:04:28.942Z,7.30
2022-09-21T06:06:55.461Z,12.43
2022-09-21T06:09:23.138Z,8.73
2022-09-21T06:11:49.746Z,15.80
2022-09-21T06:14:16.333Z,11.97
2022-09-21T06:16:43.207Z,11.73
2022-09-21T06:19:13.393Z,8.17
2022-09-21T06:21:40.029Z,25.43
2022-09-21T06:24:06.598Z,14.27
2022-09-21T06:26:33.165Z,29.60
2022-09-21T06:29:00.325Z,10.50
2022-09-21T06:31:27.983Z,23.23
2022-09-21T06:33:54.656Z,12.20
2022-09-21T06:36:21.208Z,9.03
2022-09-21T06:38:48.153Z,9.33
2022-09-21T06:41:20.132Z,12.60
2022-09-21T06:43:47.823Z,11.83
2022-09-21T06:46:14.424Z,10.70
2022-09-21T06:48:41.152Z,14.93
2022-09-21T06:51:07.888Z,15.07
2022-09-21T06:53:36.021Z,13.00
2022-09-21T06:56:07.042Z,10.03
2022-09-21T06:58:34.747Z,10.80
2022-09-21T07:01:12.136Z,10.67
2022-09-21T07:03:39.360Z,10.33
2022-09-21T07:06:06.563Z,10.43
2022-09-21T07:11:23.523Z,11.97
2022-09-21T07:13:50.634Z,11.60
2022-09-21T07:16:17.138Z,11.60
2022-09-21T07:18:44.408Z,13.07
2022-09-21T07:21:12.390Z,11.80
2022-09-21T07:23:39.294Z,12.10
2022-09-21T07:26:07.611Z,13.10
2022-09-21T07:28:34.750Z,15.30
2022-09-21T07:31:11.645Z,11.80
2022-09-21T07:33:38.383Z,12.03
2022-09-21T07:36:10.663Z,13.57
2022-09-21T07:38:40.959Z,10.87
2022-09-21T07:41:08.125Z,11.50
2022-09-21T07:43:34.737Z,12.17
2022-09-21T07:46:04.219Z,11.90
2022-09-21T07:48:31.175Z,11.10
2022-09-21T07:51:08.782Z,9.83
2022-09-21T07:53:35.841Z,14.10
2022-09-21T07:56:03.529Z,16.23
2022-09-21T07:58:49.010Z,13.97
2022-09-21T08:01:15.640Z,14.80
2022-09-21T08:03:42.284Z,16.23
2022-09-21T08:06:09.326Z,15.70
2022-09-21T08:08:36.161Z,16.10
2022-09-21T08:11:04.216Z,17.47
2022-09-21T08:13:31.285Z,16.80
2022-09-21T08:16:01.923Z,17.33
2022-09-21T08:18:28.876Z,16.63
2022-09-21T08:20:57.390Z,16.03
2022-09-21T08:23:24.285Z,15.00
2022-09-21T08:25:51.123Z,16.63
2022-09-21T08:28:18.526Z,15.77
2022-09-21T08:30:45.399Z,14.67
2022-09-21T08:33:12.017Z,14.47
2022-09-21T08:35:38.699Z,15.47
2022-09-21T08:38:05.249Z,15.10
2022-09-21T08:40:32.864Z,15.47
2022-09-21T08:43:04.226Z,15.20
2022-09-21T08:45:37.945Z,14.97
2022-09-21T08:48:10.437Z,16.70
2022-09-21T08:50:46.710Z,14.20
2022-09-21T08:53:26.966Z,14.37
2022-09-21T08:55:56.100Z,14.07
2022-09-21T08:58:27.062Z,15.93
2022-09-21T09:01:06.939Z,13.83
2022-09-21T09:03:53.187Z,13.57
2022-09-21T09:06:34.168Z,13.20
2022-09-21T09:09:21.673Z,12.20
2022-09-21T09:11:54.758Z,11.90
2022-09-21T09:14:21.435Z,12.60
2022-09-21T09:16:48.003Z,10.50
2022-09-21T09:19:22.169Z,12.10
2022-09-21T09:21:48.959Z,11.83
2022-09-21T09:24:18.716Z,11.10
2022-09-21T09:26:46.544Z,11.33
2022-09-21T09:29:36.411Z,9.90
2022-09-21T09:32:03.671Z,12.77
2022-09-21T09:34:40.274Z,12.50
2022-09-21T09:37:17.467Z,11.63
2022-09-21T09:39:49.095Z,9.23
2022-09-21T09:42:34.486Z,8.73
2022-09-21T09:45:13.427Z,10.10
2022-09-21T09:47:43.209Z,9.80
2022-09-21T09:50:23.360Z,9.30
2022-09-21T09:52:54.285Z,10.77
2022-09-21T09:55:25.954Z,8.97
2022-09-21T09:57:55.025Z,7.70
2022-09-21T10:00:21.959Z,7.43
2022-09-21T10:02:50.120Z,5.87
2022-09-21T10:05:32.231Z,7.83
2022-09-21T10:07:58.987Z,7.73
2022-09-21T10:10:28.628Z,6.77
2022-09-21T10:12:58.048Z,5.43
2022-09-21T10:15:25.141Z,5.10
2022-09-21T10:18:07.688Z,6.80
2022-09-21T10:20:34.627Z,5.50
2022-09-21T10:23:01.354Z,5.30
2022-09-21T10:25:29.722Z,7.43
2022-09-21T10:27:56.763Z,4.10
2022-09-21T10:30:29.694Z,7.67
2022-09-21T10:32:57.493Z,4.93
2022-09-21T10:35:24.042Z,6.23
2022-09-21T10:38:09.267Z,5.07
2022-09-21T10:40:39.727Z,5.53
2022-09-21T10:43:21.954Z,5.07
2022-09-21T10:45:56.251Z,5.10
2022-09-21T10:48:24.708Z,4.13
2022-09-21T10:50:51.838Z,4.67
2022-09-21T10:53:24.602Z,7.47
2022-09-21T10:56:15.091Z,5.33
2022-09-21T10:59:04.008Z,3.07
2022-09-21T11:01:31.765Z,3.60
2022-09-21T11:04:00.758Z,2.80
2022-09-21T11:06:30.283Z,4.17
2022-09-21T11:09:23.426Z,1.90
2022-09-21T11:11:54.058Z,3.73
2022-09-21T11:14:37.460Z,3.03
2022-09-21T11:17:08.497Z,2.43
2022-09-21T11:19:35.233Z,4.70
2022-09-21T11:22:07.379Z,2.67
2022-09-21T11:24:40.726Z,4.83
2022-09-21T11:27:13.226Z,4.03
2022-09-21T11:30:00.363Z,3.03
2022-09-21T11:32:32.484Z,2.83
2022-09-21T11:35:18.579Z,4.13
2022-09-21T11:37:45.286Z,4.00
2022-09-21T11:40:11.910Z,4.33
2022-09-21T11:42:41.610Z,2.87
2022-09-21T11:45:22.497Z,3.30
2022-09-21T11:48:08.505Z,3.20
2022-09-21T11:50:41.157Z,4.90
2022-09-21T11:53:11.426Z,3.47
2022-09-21T11:56:00.647Z,3.43
2022-09-21T11:58:40.370Z,3.53
2022-09-21T12:01:23.042Z,3.97
2022-09-21T12:04:20.283Z,3.27
2022-09-21T12:06:46.832Z,6.20
2022-09-21T12:09:16.301Z,4.03
2022-09-21T12:11:45.251Z,5.33
2022-09-21T12:14:25.605Z,3.90
2022-09-21T12:16:59.359Z,4.23
2022-09-21T12:19:27.807Z,5.50
2022-09-21T12:21:56.922Z,4.87
2022-09-21T12:24:31.938Z,2.93
2022-09-21T12:27:01.502Z,4.83
2022-09-21T12:29:35.364Z,4.20
2022-09-21T12:32:07.957Z,2.33
2022-09-21T12:34:39.973Z,7.50
2022-09-21T12:37:23.185Z,4.60
2022-09-21T12:39:59.899Z,2.40
2022-09-21T12:42:29.777Z,2.67
2022-09-21T12:45:15.667Z,4.13
2022-09-21T12:48:05.463Z,5.33
2022-09-21T12:50:36.447Z,4.07
2022-09-21T12:53:05.050Z,3.70
2022-09-21T12:55:38.474Z,3.33
2022-09-21T12:58:16.604Z,2.17
2022-09-21T13:00:49.492Z,1.43
2022-09-21T13:03:19.484Z,2.77
2022-09-21T13:05:56.484Z,3.77
2022-09-21T13:08:33.154Z,5.13
2022-09-21T13:11:01.333Z,3.37
2022-09-21T13:14:16.303Z,2.20
2022-09-21T13:17:19.477Z,6.27
2022-09-21T13:19:55.509Z,3.87
2022-09-21T13:22:23.808Z,2.80
2022-09-21T13:25:01.403Z,2.37
2022-09-21T13:27:47.412Z,3.23
2022-09-21T13:30:33.030Z,3.00
2022-09-21T13:33:03.195Z,4.10
2022-09-21T13:35:48.109Z,5.30
2022-09-21T13:38:41.211Z,3.13
2022-09-21T13:41:17.925Z,2.50
2022-09-21T13:44:01.170Z,3.27
2022-09-21T13:46:37.203Z,2.33
2022-09-21T13:49:12.182Z,2.30
2022-09-21T13:52:00.455Z,4.07
2022-09-21T13:54:33.890Z,1.40
2022-09-21T13:57:15.736Z,2.50
2022-09-21T13:59:44.764Z,1.17
2022-09-21T14:02:35.351Z,1.87
2022-09-21T14:05:24.168Z,2.43
2022-09-21T14:07:59.840Z,2.97
2022-09-21T14:10:27.273Z,1.33
2022-09-21T14:12:53.829Z,2.60
2022-09-21T14:15:20.828Z,1.93
2022-09-21T14:18:08.541Z,1.90
2022-09-21T14:20:39.642Z,2.87
2022-09-21T14:23:22.716Z,1.57
2022-09-21T14:25:53.184Z,1.10
2022-09-21T14:28:39.316Z,0.70
2022-09-21T14:31:26.924Z,3.23
2022-09-21T14:33:57.317Z,4.17
2022-09-21T14:36:39.395Z,2.67
2022-09-21T14:39:07.915Z,4.70
2022-09-21T14:41:39.355Z,4.43
2022-09-21T14:44:08.544Z,2.17
2022-09-21T14:46:46.598Z,4.70
2022-09-21T14:49:19.604Z,6.10
2022-09-21T14:52:13.357Z,3.97
2022-09-21T14:54:48.737Z,3.87
2022-09-21T14:57:38.792Z,2.53
2022-09-21T15:00:20.908Z,2.63
2022-09-21T15:02:59.669Z,2.23
2022-09-21T15:05:42.358Z,5.43
2022-09-21T15:08:50.641Z,3.80
2022-09-21T15:11:24.272Z,3.93
2022-09-21T15:13:53.873Z,4.07
2022-09-21T15:16:23.616Z,4.20
2022-09-21T15:18:54.028Z,2.37
2022-09-21T15:21:26.804Z,5.50
2022-09-21T15:23:53.674Z,2.70
2022-09-21T15:26:24.154Z,2.97
2022-09-21T15:29:10.512Z,3.73
2022-09-21T15:31:39.959Z,2.80
2022-09-21T15:34:14.081Z,2.67
2022-09-21T15:36:44.293Z,4.13
2022-09-21T15:39:21.691Z,3.57
2022-09-21T15:41:50.735Z,3.70
2022-09-21T15:44:24.893Z,7.50
2022-09-21T15:46:57.786Z,3.63
2022-09-21T15:49:24.932Z,5.93
2022-09-21T15:51:56.714Z,2.67
2022-09-21T15:54:32.343Z,5.20
2022-09-21T15:57:03.538Z,4.70
2022-09-21T15:59:33.083Z,3.97
2022-09-21T16:02:01.353Z,3.37
2022-09-21T16:04:28.567Z,5.13
2022-09-21T16:07:07.662Z,4.53
2022-09-21T16:09:42.935Z,2.57
2022-09-21T16:12:32.789Z,7.37
2022-09-21T16:15:15.862Z,6.67
2022-09-21T16:17:54.670Z,3.83
2022-09-21T16:20:23.407Z,5.93
2022-09-21T16:22:52.369Z,2.23
2022-09-21T16:25:37.703Z,4.23
2022-09-21T16:28:08.195Z,2.70
2022-09-21T16:30:44.879Z,3.17
2022-09-21T16:33:30.593Z,4.70
2022-09-21T16:38:50.244Z,4.23
2022-09-21T16:41:17.224Z,4.30
2022-09-21T16:43:45.804Z,3.10
2022-09-21T16:46:13.389Z,2.37
2022-09-21T16:48:41.237Z,6.37
2022-09-21T16:51:14.814Z,2.33
2022-09-21T16:53:41.911Z,4.17
2022-09-21T16:56:15.390Z,5.80
2022-09-21T16:58:46.392Z,3.23
2022-09-21T17:01:19.560Z,2.53
2022-09-21T17:03:47.424Z,4.13
2022-09-21T17:06:15.637Z,3.73
2022-09-21T17:08:43.149Z,5.30
2022-09-21T17:11:09.854Z,4.67
2022-09-21T17:13:38.422Z,2.57
2022-09-21T17:16:05.422Z,3.93
2022-09-21T17:18:33.637Z,3.73
2022-09-21T17:21:07.511Z,2.60
2022-09-21T17:23:36.490Z,4.33
2022-09-21T17:26:05.824Z,5.90
2022-09-21T17:28:33.857Z,3.30
2022-09-21T17:31:00.805Z,3.57
2022-09-21T17:33:27.354Z,3.97
2022-09-21T17:35:55.256Z,3.47
2022-09-21T17:38:28.524Z,5.57
2022-09-21T17:40:55.370Z,5.03
2022-09-21T17:43:25.007Z,6.57
2022-09-21T17:46:05.648Z,6.00
2022-09-21T17:48:34.151Z,3.50
2022-09-21T17:51:01.109Z,3.17
2022-09-21T17:53:41.395Z,9.53
2022-09-21T17:56:15.551Z,5.80
2022-09-21T17:58:45.007Z,7.47
2022-09-21T18:01:30.906Z,4.00
2022-09-21T18:04:27.000Z,6.90
2022-09-21T18:06:55.073Z,9.00
2022-09-21T18:09:21.746Z,9.00
2022-09-21T18:12:02.044Z,5.20
2022-09-21T18:14:37.800Z,6.30
2022-09-21T18:17:13.623Z,7.80
2022-09-21T18:20:00.189Z,6.27
2022-09-21T18:22:46.788Z,11.10
2022-09-21T18:25:21.241Z,5.40
2022-09-21T18:27:48.855Z,5.00
2022-09-21T18:30:18.494Z,7.50
2022-09-21T18:32:50.131Z,6.07
2022-09-21T18:35:16.676Z,5.90
2022-09-21T18:38:03.029Z,3.77
2022-09-21T18:40:35.878Z,4.53
2022-09-21T18:43:22.706Z,4.90
2022-09-21T18:45:55.512Z,8.13
2022-09-21T18:48:22.732Z,7.57
2022-09-21T18:50:52.597Z,6.17
2022-09-21T18:53:31.668Z,6.70
2022-09-21T18:55:58.574Z,8.23
2022-09-21T18:58:25.367Z,5.60
2022-09-21T19:00:53.507Z,7.97
2022-09-21T19:03:20.357Z,6.30
2022-09-21T19:05:58.462Z,9.20
2022-09-21T19:08:29.283Z,9.27
2022-09-21T19:11:09.104Z,5.87
2022-09-21T19:14:12.072Z,6.10
2022-09-21T19:16:48.112Z,3.90
2022-09-21T19:19:21.585Z,6.97
2022-09-21T19:21:59.437Z,3.97
2022-09-21T19:24:43.025Z,6.23
2022-09-21T19:27:20.056Z,5.53
2022-09-21T19:29:47.050Z,6.43
2022-09-21T19:32:15.127Z,7.80
2022-09-21T19:34:41.791Z,6.90
2022-09-21T19:37:08.911Z,5.63
2022-09-21T19:39:36.135Z,7.40
2022-09-21T19:42:13.803Z,6.77
2022-09-21T19:45:04.789Z,6.03
2022-09-21T19:47:35.272Z,8.40
2022-09-21T19:50:12.643Z,6.77
2022-09-21T19:52:40.403Z,6.37
2022-09-21T19:55:31.192Z,10.17
2022-09-21T19:58:16.412Z,5.77
2022-09-21T20:00:43.801Z,6.30
2022-09-21T20:03:31.312Z,10.43
2022-09-21T20:06:12.640Z,7.80
2022-09-21T20:08:39.163Z,7.23
2022-09-21T20:11:05.711Z,10.43
2022-09-21T20:13:36.022Z,7.90
2022-09-21T20:16:28.287Z,8.77
2022-09-21T20:18:59.694Z,6.27
2022-09-21T20:21:55.312Z,7.43
2022-09-21T20:24:34.546Z,6.63
2022-09-21T20:27:04.759Z,9.80
2022-09-21T20:29:31.176Z,8.40
2022-09-21T20:32:01.018Z,7.40
2022-09-21T20:34:28.710Z,9.80
2022-09-21T20:36:55.227Z,6.07
2022-09-21T20:39:21.725Z,7.70
2022-09-21T20:41:48.839Z,8.10
2022-09-21T20:44:15.514Z,9.07
2022-09-21T20:46:42.109Z,8.13
2022-09-21T20:49:08.812Z,6.00
2022-09-21T20:51:35.876Z,6.73
2022-09-21T20:54:02.678Z,5.60
2022-09-21T20:56:31.979Z,6.23
2022-09-21T20:58:59.351Z,5.53
2022-09-21T21:01:26.927Z,8.40
2022-09-21T21:03:55.511Z,4.97
2022-09-21T21:06:22.289Z,8.07
2022-09-21T21:08:48.794Z,5.53
2022-09-21T21:11:15.440Z,5.60
2022-09-21T21:13:42.676Z,5.17
2022-09-21T21:16:12.370Z,5.03
2022-09-21T21:18:40.506Z,4.10
2022-09-21T21:21:07.116Z,6.17
2022-09-21T21:23:53.799Z,8.10
2022-09-21T21:26:20.873Z,4.53
2022-09-21T21:28:48.049Z,5.60
2022-09-21T21:31:19.389Z,4.00
2022-09-21T21:33:52.359Z,4.23
2022-09-21T21:36:19.810Z,8.77
2022-09-21T21:38:49.237Z,5.77
2022-09-21T21:41:16.239Z,7.93
2022-09-21T21:43:44.861Z,6.43
2022-09-21T21:46:11.939Z,6.27
2022-09-21T21:48:40.731Z,4.27
2022-09-21T21:51:10.364Z,5.00
2022-09-21T21:53:39.605Z,5.50
2022-09-21T21:56:10.053Z,3.47
2022-09-21T21:58:37.545Z,5.37
2022-09-21T22:01:08.637Z,5.93
2022-09-21T22:03:35.953Z,4.83
2022-09-21T22:06:04.137Z,6.80
2022-09-21T22:08:32.638Z,6.40
2022-09-21T22:10:59.361Z,4.17
2022-09-21T22:13:34.309Z,8.57
2022-09-21T22:16:07.155Z,9.67
2022-09-21T22:18:35.879Z,7.33
2022-09-21T22:21:03.384Z,6.23
2022-09-21T22:26:06.468Z,5.77
2022-09-21T22:28:34.572Z,4.97
2022-09-21T22:31:02.048Z,3.83
2022-09-21T22:33:35.398Z,5.37
2022-09-21T22:36:07.074Z,6.43
2022-09-21T22:38:33.872Z,7.50
2022-09-21T22:41:27.298Z,8.80
2022-09-21T22:43:54.847Z,7.70
2022-09-21T22:46:22.033Z,5.07
2022-09-21T22:48:50.240Z,6.50
2022-09-21T22:51:18.199Z,7.63
2022-09-21T22:53:46.659Z,7.27
2022-09-21T22:56:15.573Z,7.50
2022-09-21T22:58:44.443Z,5.73
2022-09-21T23:01:13.066Z,6.90
2022-09-21T23:03:40.853Z,6.47
2022-09-21T23:06:08.999Z,7.70
2022-09-21T23:08:36.371Z,6.93
2022-09-21T23:11:08.693Z,7.47
2022-09-21T23:13:35.321Z,8.47
2022-09-21T23:16:04.201Z,6.50
2022-09-21T23:18:32.284Z,5.80
2022-09-21T23:38:31.821Z,3.63
2022-09-21T23:41:03.037Z,5.90
2022-09-21T23:43:29.887Z,4.57
2022-09-21T23:45:56.733Z,8.87
2022-09-21T23:48:26.559Z,3.60
2022-09-21T23:50:53.848Z,7.20
2022-09-21T23:53:20.651Z,4.27
2022-09-21T23:55:47.421Z,8.90
2022-09-21T23:58:15.604Z,7.03
